Terminal Aerodrome Forecast
Issued by NWS

Home | Current Version | Previous Version | Text Only | Print | Product List | Glossary On
Versions: 1 2 3 4 5 6 7 8 9 10 11 12 13 14 15 16 17 18 19 20 21
000
FTUS41 KBTV 281100
TAFMSS
TAF
KMSS 281140Z 2812/2912 05005KT P6SM -RA SCT014 OVC022
      TEMPO 2812/2816 5SM -RA BR SCT006 OVC015
     FM281800 02011G17KT 5SM -RA BR OVC015
     FM290100 32009KT P6SM OVC025
     FM290300 30008KT P6SM OVC045
     FM290800 28007KT P6SM SCT200=

USA.gov is the U.S. government's official web portal to all federal, state and local government web resources and services.